Time;durP1;ratioP1;P1;durP2;ratioP2;P2;SDS_P1;SDS_P2;PMS_P1;PMS_P2;Temp;Humidity;BMP_temperature;BMP_pressure;BME280_temperature;BME280_humidity;BME280_pressure;Samples;Min_cycle;Max_cycle;Signal;HPM_P1;HPM_P2
2021/03/03 00:01:34;;;;;;;23.13;18.47;;;7.50;99.90;;;;;;5026675;28;20216;-61
2021/03/03 00:04:00;;;;;;;24.93;19.57;;;7.50;99.90;;;;;;5016692;28;20212;-61
2021/03/03 00:06:25;;;;;;;23.63;18.60;;;7.60;99.90;;;;;;5039846;28;20259;-61
2021/03/03 00:08:51;;;;;;;38.00;21.30;;;7.60;99.90;;;;;;5039603;28;20583;-60
2021/03/03 00:11:17;;;;;;;30.40;19.80;;;7.50;99.90;;;;;;5073212;22;20251;-64
2021/03/03 00:13:42;;;;;;;25.90;17.70;;;7.40;99.90;;;;;;5052178;28;20174;-65
2021/03/03 00:16:08;;;;;;;25.10;18.83;;;7.40;99.90;;;;;;5052528;28;20188;-64
2021/03/03 00:18:33;;;;;;;34.70;19.80;;;7.40;99.90;;;;;;5050768;28;20182;-64
2021/03/03 00:21:00;;;;;;;23.30;18.23;;;7.20;99.90;;;;;;5034314;28;20198;-63
2021/03/03 00:23:25;;;;;;;25.43;18.03;;;7.20;99.90;;;;;;5052248;28;20238;-63
2021/03/03 00:25:51;;;;;;;28.07;18.63;;;7.20;99.90;;;;;;5046772;28;20449;-64
2021/03/03 00:28:17;;;;;;;23.70;17.27;;;7.10;99.90;;;;;;5047236;28;20171;-65
2021/03/03 00:30:42;;;;;;;24.17;17.97;;;7.10;99.90;;;;;;5046451;28;20206;-63
2021/03/03 00:33:08;;;;;;;29.73;18.00;;;7.00;99.90;;;;;;5042902;28;20174;-63
2021/03/03 00:35:33;;;;;;;24.80;17.20;;;7.00;99.90;;;;;;5034375;28;20546;-63
2021/03/03 00:37:59;;;;;;;25.43;17.23;;;7.00;99.90;;;;;;5051887;28;20170;-64
2021/03/03 00:40:25;;;;;;;23.20;16.67;;;7.00;99.90;;;;;;5050723;28;20190;-63
2021/03/03 00:42:50;;;;;;;23.70;17.83;;;7.00;99.90;;;;;;5053061;28;20162;-63
2021/03/03 00:45:16;;;;;;;23.20;17.70;;;7.10;99.90;;;;;;5040576;28;20200;-63
2021/03/03 00:47:42;;;;;;;25.50;17.73;;;7.10;99.90;;;;;;5045440;28;20178;-63
2021/03/03 00:50:08;;;;;;;26.33;18.23;;;6.90;99.90;;;;;;5055266;28;20454;-63
2021/03/03 00:52:34;;;;;;;25.13;17.80;;;7.00;99.90;;;;;;5055288;28;20628;-63
2021/03/03 00:54:59;;;;;;;27.10;18.70;;;7.10;99.90;;;;;;5055284;28;20416;-63
2021/03/03 00:57:25;;;;;;;29.07;18.40;;;7.20;99.90;;;;;;5053775;28;20225;-65
2021/03/03 00:59:50;;;;;;;23.83;16.83;;;7.20;99.90;;;;;;5055788;28;20202;-64
2021/03/03 01:02:17;;;;;;;24.50;16.40;;;7.20;99.90;;;;;;5055324;28;20644;-63
2021/03/03 01:04:43;;;;;;;25.90;17.30;;;7.30;99.90;;;;;;5055789;28;20281;-63
2021/03/03 01:07:08;;;;;;;23.70;17.20;;;7.20;99.90;;;;;;5046725;28;21007;-63
2021/03/03 01:09:34;;;;;;;26.97;18.40;;;7.10;99.90;;;;;;5053833;28;20540;-64
2021/03/03 01:12:00;;;;;;;27.93;18.53;;;7.00;99.90;;;;;;5032176;28;20162;-64
2021/03/03 01:14:25;;;;;;;23.50;17.33;;;7.00;99.90;;;;;;5050985;28;20251;-64
2021/03/03 01:16:54;;;;;;;23.57;17.23;;;6.90;99.90;;;;;;5055045;28;20179;-64
2021/03/03 01:19:20;;;;;;;24.03;18.63;;;7.00;99.90;;;;;;5055403;28;20181;-64
2021/03/03 01:21:46;;;;;;;24.23;18.40;;;7.00;99.90;;;;;;5054744;28;20412;-64
2021/03/03 01:24:13;;;;;;;28.43;18.40;;;7.00;99.90;;;;;;5048480;28;20796;-64
2021/03/03 01:26:39;;;;;;;26.30;17.43;;;7.00;99.90;;;;;;5054043;28;20933;-64
2021/03/03 01:29:05;;;;;;;23.50;18.00;;;7.00;99.90;;;;;;5033779;28;20928;-64
2021/03/03 01:31:31;;;;;;;24.63;17.20;;;7.00;99.90;;;;;;5054479;28;20439;-64
2021/03/03 01:33:57;;;;;;;25.33;18.57;;;7.00;99.90;;;;;;5054650;28;20175;-64
2021/03/03 01:36:23;;;;;;;28.33;17.23;;;7.00;99.90;;;;;;5054548;28;20436;-64
2021/03/03 01:38:49;;;;;;;22.70;16.27;;;7.10;99.90;;;;;;5054661;28;20837;-64
2021/03/03 01:41:14;;;;;;;22.37;16.37;;;7.00;99.90;;;;;;5057241;28;20202;-65
2021/03/03 01:43:40;;;;;;;26.53;18.77;;;7.00;99.90;;;;;;5054487;28;20199;-64
2021/03/03 01:46:05;;;;;;;22.27;16.63;;;7.00;99.90;;;;;;5049365;28;20754;-65
2021/03/03 01:48:31;;;;;;;24.30;16.03;;;7.00;99.90;;;;;;5054138;28;20170;-65
2021/03/03 01:50:58;;;;;;;22.70;16.30;;;7.00;99.90;;;;;;5054157;28;20269;-64
2021/03/03 01:53:23;;;;;;;22.50;15.87;;;7.00;99.90;;;;;;5053190;28;20198;-64
2021/03/03 01:55:49;;;;;;;23.57;15.93;;;7.00;99.90;;;;;;5053811;28;20405;-64
2021/03/03 01:58:14;;;;;;;26.03;16.63;;;6.90;99.90;;;;;;5053010;28;20174;-65
2021/03/03 02:00:40;;;;;;;25.77;18.73;;;6.80;99.90;;;;;;5053968;28;20190;-64
2021/03/03 02:03:06;;;;;;;23.63;16.90;;;6.80;99.90;;;;;;5053913;28;20269;-64
2021/03/03 02:05:32;;;;;;;24.70;17.50;;;6.80;99.90;;;;;;5053938;28;20181;-64
2021/03/03 02:08:19;;;;;;;28.97;18.33;;;6.70;99.90;;;;;;5053868;28;20265;-64
2021/03/03 02:11:06;;;;;;;24.40;17.67;;;6.60;99.90;;;;;;5046926;28;20525;-64
2021/03/03 02:13:42;;;;;;;22.87;16.87;;;6.60;99.90;;;;;;5033859;28;20418;-64
2021/03/03 02:16:10;;;;;;;21.00;14.60;;;6.70;99.90;;;;;;5034604;28;20394;-64
2021/03/03 02:18:36;;;;;;;22.60;16.20;;;6.80;99.90;;;;;;5040732;28;20421;-64
2021/03/03 02:21:10;;;;;;;24.80;16.60;;;6.80;99.90;;;;;;5054270;28;20956;-64
2021/03/03 02:23:47;;;;;;;25.23;15.83;;;6.90;99.90;;;;;;5054149;28;20526;-64
2021/03/03 02:26:15;;;;;;;23.13;16.53;;;6.70;99.90;;;;;;5045578;28;21127;-64
2021/03/03 02:28:41;;;;;;;22.37;15.77;;;6.60;99.90;;;;;;5052834;28;20417;-64
2021/03/03 02:31:07;;;;;;;30.07;16.17;;;6.70;99.90;;;;;;5052949;28;20798;-64
2021/03/03 02:33:34;;;;;;;22.53;14.90;;;6.60;99.90;;;;;;5043791;28;20421;-64
2021/03/03 02:36:00;;;;;;;20.60;15.93;;;6.50;99.90;;;;;;5047291;28;20171;-64
2021/03/03 02:38:27;;;;;;;21.07;15.30;;;6.40;99.90;;;;;;5040940;28;20414;-64
2021/03/03 02:40:53;;;;;;;22.00;16.93;;;6.40;99.90;;;;;;5044875;28;20464;-64
2021/03/03 02:43:19;;;;;;;22.70;17.13;;;6.40;99.90;;;;;;5053441;28;20483;-64
2021/03/03 02:45:47;;;;;;;23.57;17.47;;;6.50;99.90;;;;;;5034707;28;20266;-64
2021/03/03 02:48:14;;;;;;;20.63;15.30;;;6.50;99.90;;;;;;5047007;28;20437;-64
2021/03/03 02:50:40;;;;;;;21.30;15.67;;;6.50;99.90;;;;;;5053099;28;20441;-64
2021/03/03 02:53:06;;;;;;;22.83;14.77;;;6.60;99.90;;;;;;5053493;28;20405;-64
2021/03/03 02:55:32;;;;;;;22.53;16.47;;;6.60;99.90;;;;;;5052964;28;20417;-64
2021/03/03 02:58:00;;;;;;;27.73;15.53;;;6.60;99.90;;;;;;5053334;28;20177;-64
2021/03/03 03:00:28;;;;;;;23.80;17.07;;;6.50;99.90;;;;;;5053637;28;20996;-64
2021/03/03 03:03:16;;;;;;;22.43;16.70;;;6.50;99.90;;;;;;5052336;28;20417;-64
2021/03/03 03:05:45;;;;;;;21.57;16.03;;;6.50;99.90;;;;;;5046442;28;20422;-64
2021/03/03 03:08:14;;;;;;;23.20;16.87;;;6.50;99.90;;;;;;5051221;28;20397;-64
2021/03/03 03:10:41;;;;;;;21.40;15.30;;;6.30;99.90;;;;;;5052413;28;20488;-64
2021/03/03 03:13:11;;;;;;;22.87;17.23;;;6.20;99.90;;;;;;5043839;28;20817;-64
2021/03/03 03:15:38;;;;;;;21.60;15.40;;;6.30;99.90;;;;;;5052882;28;20378;-64
2021/03/03 03:18:10;;;;;;;22.33;16.60;;;6.40;99.90;;;;;;5052439;28;20451;-64
2021/03/03 03:20:38;;;;;;;22.63;15.93;;;6.50;99.90;;;;;;5052888;28;20918;-64
2021/03/03 03:23:06;;;;;;;24.13;15.97;;;6.50;99.90;;;;;;5052162;28;20487;-64
2021/03/03 03:25:33;;;;;;;32.03;16.63;;;6.30;99.90;;;;;;5036918;28;20410;-64
2021/03/03 03:28:00;;;;;;;22.33;16.50;;;6.30;99.90;;;;;;5052447;28;20771;-64
2021/03/03 03:30:27;;;;;;;25.60;18.00;;;6.20;99.90;;;;;;5052452;28;20426;-64
2021/03/03 03:32:57;;;;;;;23.03;17.00;;;6.20;99.90;;;;;;5052885;28;20405;-64
2021/03/03 03:35:25;;;;;;;23.00;16.83;;;6.30;99.90;;;;;;5052028;28;20405;-64
2021/03/03 03:37:51;;;;;;;21.63;16.53;;;6.30;99.90;;;;;;5052724;28;20405;-65
2021/03/03 03:40:17;;;;;;;22.83;17.10;;;6.30;99.90;;;;;;5055029;28;20433;-64
2021/03/03 03:42:45;;;;;;;26.77;16.47;;;6.30;99.90;;;;;;5052935;28;20401;-65
2021/03/03 03:45:12;;;;;;;24.33;18.10;;;6.30;99.90;;;;;;5053449;28;20186;-65
2021/03/03 03:47:39;;;;;;;22.63;15.70;;;6.40;99.90;;;;;;5043024;28;20429;-64
2021/03/03 03:50:06;;;;;;;24.93;17.23;;;6.40;99.90;;;;;;5052266;28;20436;-64
2021/03/03 03:52:33;;;;;;;21.30;16.23;;;6.40;99.90;;;;;;5043050;28;20464;-64
2021/03/03 03:54:59;;;;;;;26.17;18.07;;;6.50;99.90;;;;;;5052612;28;20416;-64
2021/03/03 03:57:25;;;;;;;21.87;15.90;;;6.50;99.90;;;;;;5052201;28;20413;-64
2021/03/03 03:59:50;;;;;;;24.20;16.70;;;6.40;99.90;;;;;;5052340;28;20343;-64
2021/03/03 04:02:17;;;;;;;21.03;15.50;;;6.50;99.90;;;;;;5052935;28;20496;-65
2021/03/03 04:04:42;;;;;;;25.20;16.60;;;6.40;99.90;;;;;;5042216;28;20660;-63
2021/03/03 04:07:08;;;;;;;27.73;18.20;;;6.40;99.90;;;;;;5047426;28;20495;-64
2021/03/03 04:09:34;;;;;;;24.07;16.83;;;6.30;99.90;;;;;;5052421;28;20539;-63
2021/03/03 04:12:00;;;;;;;22.93;16.93;;;6.30;99.90;;;;;;5052030;28;20569;-64
2021/03/03 04:14:27;;;;;;;24.33;16.17;;;6.40;99.90;;;;;;5052214;28;20200;-63
2021/03/03 04:16:52;;;;;;;25.60;18.20;;;6.40;99.90;;;;;;5052572;28;20428;-64
2021/03/03 04:19:19;;;;;;;24.80;16.80;;;6.40;99.90;;;;;;5055721;28;20522;-64
2021/03/03 04:21:45;;;;;;;21.03;16.53;;;6.40;99.90;;;;;;5056440;28;20220;-62
2021/03/03 04:24:11;;;;;;;25.07;17.73;;;6.40;99.90;;;;;;5056533;28;20475;-64
2021/03/03 04:26:37;;;;;;;24.60;16.60;;;6.30;99.90;;;;;;5046110;28;20425;-65
2021/03/03 04:29:03;;;;;;;23.50;17.27;;;6.30;99.90;;;;;;5055718;28;20416;-64
2021/03/03 04:31:28;;;;;;;22.53;17.80;;;6.30;99.90;;;;;;5056338;28;20188;-64
2021/03/03 04:33:54;;;;;;;26.40;16.43;;;6.20;99.90;;;;;;5055771;28;20228;-64
2021/03/03 04:36:19;;;;;;;25.70;19.00;;;6.20;99.90;;;;;;5055368;28;20171;-64
2021/03/03 04:38:45;;;;;;;24.40;18.23;;;6.10;99.90;;;;;;5056061;28;20178;-64
2021/03/03 04:41:11;;;;;;;21.50;16.07;;;6.10;99.90;;;;;;5055393;28;20285;-64
2021/03/03 04:43:36;;;;;;;22.20;17.70;;;6.10;99.90;;;;;;5055474;28;20305;-64
2021/03/03 04:46:02;;;;;;;27.13;19.03;;;6.20;99.90;;;;;;5056066;28;20213;-64
2021/03/03 04:48:28;;;;;;;28.63;19.53;;;6.10;99.90;;;;;;5055431;28;20542;-63
2021/03/03 04:50:53;;;;;;;21.80;16.63;;;6.00;99.90;;;;;;5055248;28;20210;-64
2021/03/03 04:53:19;;;;;;;21.43;16.93;;;6.10;99.90;;;;;;5055807;28;20163;-64
2021/03/03 04:55:45;;;;;;;26.97;17.73;;;6.10;99.90;;;;;;5054524;28;20182;-64
2021/03/03 04:58:11;;;;;;;24.00;18.43;;;6.20;99.90;;;;;;5055880;28;20543;-64
2021/03/03 05:00:36;;;;;;;23.00;17.07;;;6.00;99.90;;;;;;5055527;28;20428;-64
2021/03/03 05:03:02;;;;;;;28.80;19.17;;;6.10;99.90;;;;;;5055387;28;20171;-64
2021/03/03 05:05:28;;;;;;;25.37;18.00;;;6.10;99.90;;;;;;5051952;28;20201;-63
2021/03/03 05:07:54;;;;;;;23.10;18.00;;;6.00;99.90;;;;;;5047484;28;20909;-61
2021/03/03 05:10:19;;;;;;;25.07;17.70;;;6.10;99.90;;;;;;5043255;28;20292;-62
2021/03/03 05:12:45;;;;;;;21.70;16.93;;;6.20;99.90;;;;;;5047139;28;20167;-62
2021/03/03 05:15:11;;;;;;;25.13;18.63;;;6.20;99.90;;;;;;5055326;28;20701;-62
2021/03/03 05:17:37;;;;;;;23.30;18.23;;;6.20;99.90;;;;;;5054925;28;20220;-62
2021/03/03 05:20:04;;;;;;;27.83;18.87;;;6.30;99.90;;;;;;5054773;28;20433;-62
2021/03/03 05:22:29;;;;;;;28.40;18.43;;;6.40;99.90;;;;;;5055288;28;20776;-62
2021/03/03 05:24:55;;;;;;;24.83;17.43;;;6.40;99.90;;;;;;5042698;28;20449;-62
2021/03/03 05:27:20;;;;;;;22.07;16.97;;;6.50;99.90;;;;;;5024080;28;20686;-62
2021/03/03 05:29:46;;;;;;;23.93;16.83;;;6.50;99.90;;;;;;5053639;28;20187;-62
2021/03/03 05:32:11;;;;;;;28.57;18.80;;;6.40;99.90;;;;;;5054648;28;20175;-62
2021/03/03 05:34:37;;;;;;;29.80;20.37;;;6.50;99.90;;;;;;5044104;28;20212;-62
2021/03/03 05:37:03;;;;;;;25.00;19.67;;;6.30;99.90;;;;;;5054579;28;20182;-62
2021/03/03 05:39:28;;;;;;;28.00;20.40;;;6.20;99.90;;;;;;5054701;28;20202;-62
2021/03/03 05:41:59;;;;;;;29.03;18.63;;;6.30;99.90;;;;;;5054271;28;20173;-62
2021/03/03 05:44:25;;;;;;;29.17;20.70;;;6.30;99.90;;;;;;5044422;28;20188;-63
2021/03/03 05:46:51;;;;;;;27.30;20.67;;;6.40;99.90;;;;;;5054648;28;20403;-62
2021/03/03 05:49:22;;;;;;;24.70;20.77;;;6.30;99.90;;;;;;5061423;28;20405;-63
2021/03/03 05:51:48;;;;;;;24.97;18.73;;;6.40;99.90;;;;;;5054938;28;20393;-62
2021/03/03 05:54:15;;;;;;;28.50;19.03;;;6.50;99.90;;;;;;5053276;28;20910;-62
2021/03/03 05:56:42;;;;;;;29.23;19.67;;;6.40;99.90;;;;;;5053740;28;20179;-62
2021/03/03 05:59:11;;;;;;;23.60;19.13;;;6.30;99.90;;;;;;5054471;28;20413;-62
2021/03/03 06:01:37;;;;;;;24.97;18.90;;;6.40;99.90;;;;;;5042709;28;20519;-62
2021/03/03 06:04:04;;;;;;;26.93;19.30;;;6.20;99.90;;;;;;5049018;28;20485;-62
2021/03/03 06:06:30;;;;;;;23.23;18.77;;;6.30;99.90;;;;;;5053828;28;20647;-63
2021/03/03 06:08:56;;;;;;;24.93;19.57;;;6.30;99.90;;;;;;5053698;28;20409;-61
2021/03/03 06:11:21;;;;;;;26.83;20.87;;;6.30;99.90;;;;;;5052151;28;20471;-63
2021/03/03 06:13:47;;;;;;;25.90;17.93;;;6.30;99.90;;;;;;5053882;28;20169;-63
2021/03/03 06:16:15;;;;;;;25.93;18.03;;;6.30;99.90;;;;;;5045040;28;20167;-63
2021/03/03 06:18:42;;;;;;;29.17;19.53;;;6.20;99.90;;;;;;5052512;28;20182;-63
2021/03/03 06:21:32;;;;;;;24.70;18.23;;;6.30;99.90;;;;;;5053696;28;20437;-62
2021/03/03 06:24:04;;;;;;;27.00;19.43;;;6.30;99.90;;;;;;5054175;28;20543;-62
2021/03/03 06:26:29;;;;;;;23.93;19.10;;;6.30;99.90;;;;;;5053531;28;20409;-63
2021/03/03 06:28:55;;;;;;;21.20;17.80;;;6.40;99.90;;;;;;5052565;28;20417;-62
2021/03/03 06:31:27;;;;;;;25.80;19.50;;;6.50;99.90;;;;;;5053974;28;20190;-62
2021/03/03 06:34:06;;;;;;;30.50;21.93;;;6.50;99.90;;;;;;5039954;28;20406;-63
2021/03/03 06:36:35;;;;;;;23.03;16.97;;;6.40;99.90;;;;;;5043678;28;20961;-63
2021/03/03 06:39:22;;;;;;;24.40;17.57;;;6.50;99.90;;;;;;5053144;28;20412;-63
2021/03/03 06:41:50;;;;;;;26.87;19.73;;;6.50;99.90;;;;;;5054754;28;20918;-63
2021/03/03 06:44:16;;;;;;;28.10;19.93;;;6.60;99.90;;;;;;5052895;28;20452;-63
2021/03/03 06:46:44;;;;;;;23.60;18.60;;;6.60;99.90;;;;;;5044209;28;20417;-63
2021/03/03 06:49:23;;;;;;;26.30;19.70;;;6.70;99.90;;;;;;5051150;28;20475;-64
2021/03/03 06:51:50;;;;;;;25.10;18.50;;;6.90;99.90;;;;;;5039420;28;20981;-63
2021/03/03 06:54:21;;;;;;;24.93;19.73;;;6.90;99.90;;;;;;5050273;28;20413;-64
2021/03/03 06:56:49;;;;;;;21.77;16.60;;;6.90;99.90;;;;;;5052390;28;20423;-63
2021/03/03 06:59:32;;;;;;;21.87;19.10;;;7.00;99.90;;;;;;5052690;28;20405;-62
2021/03/03 07:02:00;;;;;;;23.10;17.90;;;7.20;99.90;;;;;;5047067;28;20454;-65
2021/03/03 07:04:39;;;;;;;26.93;20.20;;;7.20;99.90;;;;;;5053265;28;20476;-63
2021/03/03 07:07:13;;;;;;;23.83;18.70;;;7.30;99.90;;;;;;5032810;28;20488;-63
2021/03/03 07:09:43;;;;;;;22.90;18.50;;;7.30;99.90;;;;;;5032496;28;20202;-64
2021/03/03 07:12:14;;;;;;;22.77;17.90;;;7.40;99.90;;;;;;5032674;28;20395;-65
2021/03/03 07:14:41;;;;;;;23.37;18.17;;;7.50;99.90;;;;;;5033107;28;20437;-63
2021/03/03 07:17:06;;;;;;;22.47;18.60;;;7.40;99.90;;;;;;5047019;28;20445;-63
2021/03/03 07:19:59;;;;;;;24.87;19.10;;;7.40;99.90;;;;;;5052938;28;20404;-63
2021/03/03 07:22:33;;;;;;;25.17;16.97;;;7.60;99.90;;;;;;5044526;28;20179;-62
2021/03/03 07:25:00;;;;;;;24.60;17.90;;;7.70;99.90;;;;;;5053110;28;20425;-65
2021/03/03 07:27:26;;;;;;;23.20;17.60;;;7.80;99.90;;;;;;5052275;28;20416;-63
2021/03/03 07:29:55;;;;;;;22.30;18.53;;;8.00;99.90;;;;;;5053161;28;20458;-63
2021/03/03 07:32:21;;;;;;;24.63;18.33;;;8.00;99.90;;;;;;5052493;28;20402;-63
2021/03/03 07:34:48;;;;;;;26.07;17.87;;;7.90;99.90;;;;;;5052728;28;20412;-63
2021/03/03 07:37:19;;;;;;;19.63;15.90;;;7.80;99.90;;;;;;5052738;28;20183;-63
2021/03/03 07:39:48;;;;;;;22.57;17.50;;;8.00;99.90;;;;;;5051760;28;20437;-65
2021/03/03 07:42:24;;;;;;;23.00;17.57;;;8.20;99.90;;;;;;5052915;28;20972;-64
2021/03/03 07:44:53;;;;;;;21.90;17.17;;;8.30;99.90;;;;;;5052718;28;20448;-63
2021/03/03 07:47:21;;;;;;;24.90;19.10;;;8.50;99.90;;;;;;5052687;28;20428;-63
2021/03/03 07:49:48;;;;;;;21.87;18.03;;;8.60;99.90;;;;;;5052791;28;20515;-63
2021/03/03 07:52:18;;;;;;;27.23;18.50;;;8.50;99.90;;;;;;5052863;28;20428;-63
2021/03/03 07:54:43;;;;;;;26.00;18.67;;;8.60;99.90;;;;;;5056511;28;20911;-63
2021/03/03 07:57:12;;;;;;;22.60;17.63;;;8.80;99.90;;;;;;5059346;28;20404;-63
2021/03/03 07:59:41;;;;;;;25.83;18.67;;;9.00;99.90;;;;;;5057299;28;20175;-64
2021/03/03 08:02:07;;;;;;;23.03;18.80;;;9.10;99.90;;;;;;5044957;28;20935;-62
2021/03/03 08:05:02;;;;;;;24.43;18.50;;;9.30;99.90;;;;;;5056153;28;20458;-63
2021/03/03 08:07:27;;;;;;;24.70;18.67;;;9.50;99.90;;;;;;5051535;28;20210;-63
2021/03/03 08:10:11;;;;;;;25.13;17.43;;;9.60;99.90;;;;;;5055366;28;20932;-65
2021/03/03 08:12:59;;;;;;;27.00;20.10;;;9.70;99.90;;;;;;5056116;28;20223;-63
2021/03/03 08:15:48;;;;;;;25.43;17.30;;;9.60;99.90;;;;;;5056127;28;20479;-63
2021/03/03 08:18:13;;;;;;;24.83;17.80;;;9.70;99.90;;;;;;5055975;28;20386;-63
2021/03/03 08:20:40;;;;;;;23.73;19.17;;;9.80;99.90;;;;;;5056428;28;20437;-64
2021/03/03 08:23:06;;;;;;;28.65;19.80;;;10.00;99.90;;;;;;5056398;28;20400;-63
2021/03/03 08:25:46;;;;;;;28.67;21.40;;;10.20;99.90;;;;;;5056590;28;20227;-63
2021/03/03 08:28:22;;;;;;;36.63;21.40;;;10.00;99.90;;;;;;5056474;28;20487;-63
2021/03/03 08:31:06;;;;;;;27.65;21.15;;;9.80;99.90;;;;;;5055267;28;20400;-63
2021/03/03 08:33:35;;;;;;;30.40;21.30;;;10.30;99.90;;;;;;5056442;28;20174;-63
2021/03/03 08:36:01;;;;;;;27.13;19.60;;;10.30;99.90;;;;;;5056214;28;20400;-63
2021/03/03 08:38:27;;;;;;;28.83;19.70;;;10.30;99.90;;;;;;5056260;28;20408;-63
2021/03/03 08:40:52;;;;;;;32.97;20.20;;;10.30;99.90;;;;;;5055935;28;20194;-63
2021/03/03 08:43:37;;;;;;;31.83;19.73;;;10.50;99.90;;;;;;5056099;28;20208;-63
2021/03/03 08:46:20;;;;;;;29.93;19.53;;;10.40;99.90;;;;;;5056670;28;20182;-63
2021/03/03 08:48:52;;;;;;;27.27;20.97;;;10.60;99.90;;;;;;5056110;28;20795;-63
2021/03/03 08:51:25;;;;;;;39.87;21.13;;;10.70;99.90;;;;;;5056282;28;20425;-65
2021/03/03 08:53:54;;;;;;;32.73;21.10;;;10.90;99.90;;;;;;5054837;28;20425;-64
2021/03/03 08:56:40;;;;;;;27.50;20.40;;;10.90;99.90;;;;;;5056271;28;20489;-64
2021/03/03 08:59:09;;;;;;;28.10;19.83;;;11.00;99.90;;;;;;5056125;28;20405;-64
2021/03/03 09:01:58;;;;;;;30.27;19.97;;;10.90;99.90;;;;;;5055747;28;20419;-65
2021/03/03 09:04:33;;;;;;;29.67;19.40;;;11.00;99.90;;;;;;5055771;28;20455;-64
2021/03/03 09:07:07;;;;;;;31.27;20.27;;;10.90;99.90;;;;;;5055669;28;20382;-65
2021/03/03 09:09:49;;;;;;;31.20;21.20;;;11.00;99.90;;;;;;5054738;28;20431;-64
2021/03/03 09:12:17;;;;;;;28.53;20.20;;;11.10;99.90;;;;;;5056166;28;20380;-64
2021/03/03 09:14:46;;;;;;;28.53;21.33;;;11.00;99.90;;;;;;5055774;28;20422;-64
2021/03/03 09:17:27;;;;;;;25.23;20.73;;;11.10;99.90;;;;;;5055408;28;20415;-63
2021/03/03 09:19:57;;;;;;;30.33;19.90;;;11.30;99.90;;;;;;5056126;28;20424;-64
2021/03/03 09:22:24;;;;;;;33.07;19.27;;;11.30;99.90;;;;;;5055752;28;20386;-64
2021/03/03 09:24:51;;;;;;;29.60;21.30;;;11.50;99.90;;;;;;5054817;28;20485;-65
2021/03/03 09:27:19;;;;;;;34.63;22.90;;;11.00;99.90;;;;;;5055105;28;20407;-64
2021/03/03 09:29:45;;;;;;;23.73;19.10;;;11.10;99.90;;;;;;5055336;28;20424;-65
2021/03/03 09:32:13;;;;;;;24.20;18.40;;;10.90;99.90;;;;;;5055275;28;20451;-64
2021/03/03 09:34:49;;;;;;;31.20;21.23;;;11.20;99.90;;;;;;5055240;28;20416;-65
2021/03/03 09:37:16;;;;;;;30.63;19.90;;;11.30;99.90;;;;;;5055027;28;20489;-64
2021/03/03 09:39:42;;;;;;;25.73;21.10;;;11.40;99.90;;;;;;5054454;28;20427;-65
2021/03/03 09:42:10;;;;;;;31.30;20.13;;;11.30;99.90;;;;;;5054913;28;20432;-64
2021/03/03 09:44:45;;;;;;;25.60;20.47;;;11.60;99.90;;;;;;5055130;28;20471;-64
2021/03/03 09:47:12;;;;;;;26.53;21.33;;;11.90;99.90;;;;;;5054913;28;20397;-65
2021/03/03 09:49:38;;;;;;;23.63;19.70;;;12.20;99.90;;;;;;5056463;28;20410;-65
2021/03/03 09:52:05;;;;;;;28.00;21.37;;;12.20;99.90;;;;;;5055359;28;20406;-65
2021/03/03 09:54:36;;;;;;;28.10;20.90;;;12.10;99.90;;;;;;5054265;28;20412;-64
2021/03/03 09:57:06;;;;;;;30.67;20.30;;;12.50;99.90;;;;;;5054673;28;20188;-65
2021/03/03 09:59:33;;;;;;;33.10;20.73;;;12.70;99.90;;;;;;5054711;28;20567;-64
2021/03/03 10:02:00;;;;;;;27.07;21.10;;;12.60;99.90;;;;;;5054838;28;20414;-64
2021/03/03 10:04:26;;;;;;;30.70;20.60;;;12.70;99.90;;;;;;5054636;28;20450;-64
2021/03/03 10:06:53;;;;;;;26.53;20.00;;;12.60;99.70;;;;;;5054371;28;20405;-65
2021/03/03 10:09:19;;;;;;;29.13;22.80;;;12.60;99.80;;;;;;5053802;28;20424;-63
2021/03/03 10:11:45;;;;;;;33.63;21.97;;;12.60;99.70;;;;;;5054070;28;20437;-64
2021/03/03 10:14:11;;;;;;;33.03;22.70;;;12.60;99.80;;;;;;5054046;28;20415;-64
2021/03/03 10:16:37;;;;;;;25.47;20.50;;;12.70;99.30;;;;;;5053910;28;20489;-63
2021/03/03 10:19:05;;;;;;;27.70;21.70;;;12.80;99.30;;;;;;5054205;28;20919;-62
2021/03/03 10:21:32;;;;;;;31.03;21.40;;;12.90;99.20;;;;;;5054471;28;20797;-62
2021/03/03 10:23:58;;;;;;;27.90;21.23;;;12.90;98.70;;;;;;5053584;28;20446;-62
2021/03/03 10:26:40;;;;;;;29.97;21.10;;;12.90;98.70;;;;;;5054163;28;20408;-62
2021/03/03 10:29:07;;;;;;;31.07;21.23;;;12.80;98.60;;;;;;5053991;28;20162;-62
2021/03/03 10:31:33;;;;;;;28.50;21.60;;;13.10;98.90;;;;;;5054033;28;20432;-62
2021/03/03 10:34:12;;;;;;;29.07;20.30;;;13.20;98.70;;;;;;5054088;28;20914;-62
2021/03/03 10:36:41;;;;;;;31.83;20.50;;;13.20;98.50;;;;;;5054040;28;20165;-62
2021/03/03 10:39:09;;;;;;;30.43;22.23;;;13.30;98.70;;;;;;5053103;28;20427;-62
2021/03/03 10:41:35;;;;;;;36.67;21.30;;;13.40;98.30;;;;;;5053895;28;20892;-62
2021/03/03 10:44:05;;;;;;;26.43;20.47;;;13.70;98.10;;;;;;5054455;28;20460;-62
2021/03/03 10:46:32;;;;;;;28.70;21.30;;;14.00;97.50;;;;;;5053790;28;20471;-62
2021/03/03 10:49:12;;;;;;;29.47;21.63;;;14.00;97.20;;;;;;5053611;28;20438;-63
2021/03/03 10:51:38;;;;;;;30.23;21.13;;;14.30;97.10;;;;;;5053587;28;20434;-63
2021/03/03 10:54:05;;;;;;;26.10;20.83;;;14.40;96.70;;;;;;5047841;28;20435;-63
2021/03/03 10:56:43;;;;;;;27.07;20.07;;;14.20;96.80;;;;;;5040825;28;20576;-62
2021/03/03 10:59:27;;;;;;;29.53;20.83;;;14.30;97.10;;;;;;5033739;28;20510;-63
2021/03/03 11:01:57;;;;;;;28.17;21.97;;;14.40;96.80;;;;;;5015747;28;20913;-63
2021/03/03 11:04:36;;;;;;;27.07;20.83;;;14.50;96.10;;;;;;5033309;28;20473;-62
2021/03/03 11:07:02;;;;;;;22.67;20.17;;;14.20;96.40;;;;;;5034299;28;20865;-62
2021/03/03 11:09:28;;;;;;;33.83;21.90;;;14.50;96.40;;;;;;5052460;28;20535;-62
2021/03/03 11:11:56;;;;;;;24.33;21.13;;;14.20;96.70;;;;;;5053501;28;20864;-62
2021/03/03 11:14:23;;;;;;;32.43;21.90;;;14.30;96.60;;;;;;5052986;28;20515;-61
2021/03/03 11:16:49;;;;;;;29.60;21.47;;;14.40;96.30;;;;;;5052929;28;20415;-62
2021/03/03 11:19:16;;;;;;;27.80;22.10;;;14.50;96.50;;;;;;5053187;28;20416;-62
2021/03/03 11:21:41;;;;;;;25.40;21.10;;;14.70;96.30;;;;;;5052902;28;20432;-61
2021/03/03 11:24:07;;;;;;;23.93;20.10;;;14.80;95.90;;;;;;5052187;28;20459;-62
2021/03/03 11:26:36;;;;;;;31.87;24.83;;;15.00;95.80;;;;;;5052716;28;20258;-61
2021/03/03 11:29:02;;;;;;;26.80;21.17;;;14.70;95.70;;;;;;5052200;28;20405;-62
2021/03/03 11:31:28;;;;;;;25.27;20.70;;;14.60;96.00;;;;;;5052748;28;20500;-62
2021/03/03 11:33:54;;;;;;;31.27;20.43;;;15.10;95.60;;;;;;5053011;28;20422;-62
2021/03/03 11:36:20;;;;;;;25.50;20.57;;;15.40;95.20;;;;;;5052873;28;20861;-62
2021/03/03 11:38:45;;;;;;;27.40;22.83;;;15.30;95.10;;;;;;5052112;28;20185;-62
2021/03/03 11:41:11;;;;;;;29.80;21.03;;;15.60;94.80;;;;;;5035455;28;20187;-62
2021/03/03 11:43:36;;;;;;;25.27;20.50;;;15.80;94.40;;;;;;5052816;28;20571;-62
2021/03/03 11:46:02;;;;;;;27.40;21.17;;;15.70;94.20;;;;;;5053314;28;20224;-62
2021/03/03 11:48:28;;;;;;;26.30;20.37;;;15.80;93.90;;;;;;5053075;28;20540;-64
2021/03/03 11:50:53;;;;;;;26.77;21.53;;;16.00;93.80;;;;;;5052710;28;20193;-62
2021/03/03 11:53:19;;;;;;;25.90;19.80;;;16.30;93.40;;;;;;5051564;28;20224;-63
2021/03/03 11:55:45;;;;;;;30.67;22.67;;;15.80;93.60;;;;;;5052514;28;20280;-62
2021/03/03 11:58:10;;;;;;;30.80;20.97;;;15.60;94.00;;;;;;5055116;28;20253;-62
2021/03/03 12:00:36;;;;;;;28.07;20.93;;;15.70;94.00;;;;;;5051980;28;20209;-63
2021/03/03 12:03:02;;;;;;;26.23;23.43;;;15.60;93.60;;;;;;5052624;28;20172;-62
2021/03/03 12:05:27;;;;;;;23.70;21.13;;;15.60;93.80;;;;;;5052239;28;20200;-63
2021/03/03 12:07:53;;;;;;;25.70;21.17;;;15.70;93.80;;;;;;5052169;28;20192;-61
2021/03/03 12:10:18;;;;;;;26.17;20.63;;;15.80;93.70;;;;;;5052198;28;20254;-63
2021/03/03 12:12:44;;;;;;;26.90;22.27;;;16.00;93.40;;;;;;5052352;28;20178;-64
2021/03/03 12:15:10;;;;;;;25.23;20.63;;;15.80;93.40;;;;;;5052453;28;20224;-63
2021/03/03 12:17:36;;;;;;;24.70;19.47;;;15.70;93.50;;;;;;5052371;28;20202;-62
2021/03/03 12:20:04;;;;;;;26.93;21.73;;;15.80;93.30;;;;;;5033541;28;20483;-62
2021/03/03 12:22:29;;;;;;;25.30;20.47;;;15.90;93.50;;;;;;5052112;28;20181;-62
2021/03/03 12:24:55;;;;;;;27.57;22.27;;;15.70;93.40;;;;;;5052148;28;20457;-62
2021/03/03 12:27:21;;;;;;;25.97;20.20;;;15.80;93.30;;;;;;5052365;28;20179;-63
2021/03/03 12:29:46;;;;;;;25.93;20.70;;;15.70;93.30;;;;;;5052326;28;20196;-63
2021/03/03 12:32:13;;;;;;;27.73;21.73;;;15.60;93.60;;;;;;5052512;28;20180;-62
2021/03/03 12:34:39;;;;;;;24.30;20.87;;;15.90;93.30;;;;;;5052024;28;20547;-62
2021/03/03 12:37:04;;;;;;;25.50;20.53;;;16.40;92.80;;;;;;5052440;28;20416;-62
2021/03/03 12:39:30;;;;;;;24.53;20.67;;;16.50;92.20;;;;;;5055145;28;20500;-62